createdAt,value
2018-12-23T00:01:46.909Z,76.62
2018-12-23T00:04:14.349Z,77.20
2018-12-23T00:06:41.774Z,77.25
2018-12-23T00:09:09.207Z,77.32
2018-12-23T00:11:36.635Z,77.00
2018-12-23T00:14:04.068Z,77.52
2018-12-23T00:16:32.348Z,76.86
2018-12-23T00:18:59.785Z,77.51
2018-12-23T00:21:27.213Z,77.42
2018-12-23T00:23:54.736Z,77.42
2018-12-23T00:26:22.156Z,76.58
2018-12-23T00:28:49.588Z,76.37
2018-12-23T00:31:17.029Z,76.47
2018-12-23T00:33:44.496Z,76.29
2018-12-23T00:36:11.924Z,76.35
2018-12-23T00:38:39.353Z,75.45
2018-12-23T00:41:06.795Z,75.31
2018-12-23T00:43:34.216Z,75.97
2018-12-23T00:46:01.648Z,75.99
2018-12-23T00:48:29.181Z,76.42
2018-12-23T00:50:56.619Z,76.34
2018-12-23T00:53:24.041Z,76.90
2018-12-23T00:55:51.470Z,76.82
2018-12-23T00:58:18.900Z,75.81
2018-12-23T01:00:46.352Z,75.50
2018-12-23T01:03:13.932Z,74.92
2018-12-23T01:05:41.368Z,75.26
2018-12-23T01:08:09.025Z,74.20
2018-12-23T01:10:36.504Z,74.71
2018-12-23T01:13:03.928Z,75.25
2018-12-23T01:15:31.374Z,74.42
2018-12-23T01:17:58.821Z,74.70
2018-12-23T01:20:26.264Z,75.18
2018-12-23T01:22:53.689Z,75.07
2018-12-23T01:25:21.119Z,74.11
2018-12-23T01:27:48.615Z,74.91
2018-12-23T01:30:16.043Z,74.93
2018-12-23T01:32:43.520Z,74.98
2018-12-23T01:35:10.962Z,75.30
2018-12-23T01:37:38.388Z,75.38
2018-12-23T01:40:05.816Z,75.40
2018-12-23T01:42:33.245Z,76.06
2018-12-23T01:45:00.699Z,76.00
2018-12-23T01:47:28.197Z,76.83
2018-12-23T01:49:55.644Z,76.93
2018-12-23T01:52:23.068Z,76.51
2018-12-23T01:54:50.501Z,76.62
2018-12-23T01:57:17.931Z,76.64
2018-12-23T01:59:45.364Z,76.92
2018-12-23T02:02:12.788Z,77.46
2018-12-23T02:04:40.229Z,77.81
2018-12-23T02:07:07.661Z,77.89
2018-12-23T02:09:35.093Z,77.79
2018-12-23T02:12:02.521Z,77.89
2018-12-23T02:14:29.966Z,78.45
2018-12-23T02:16:57.397Z,77.23
2018-12-23T02:19:24.958Z,76.91
2018-12-23T02:21:52.600Z,77.00
2018-12-23T02:24:20.072Z,76.72
2018-12-23T02:26:47.508Z,77.01
2018-12-23T02:29:14.957Z,76.92
2018-12-23T02:31:42.397Z,76.32
2018-12-23T02:34:09.824Z,76.36
2018-12-23T02:36:37.283Z,76.93
2018-12-23T02:39:04.945Z,76.39
2018-12-23T02:41:32.384Z,75.25
2018-12-23T02:43:59.821Z,76.68
2018-12-23T02:46:27.251Z,76.29
2018-12-23T02:48:55.280Z,76.51
2018-12-23T02:51:22.729Z,76.36
2018-12-23T02:53:50.224Z,76.25
2018-12-23T02:56:17.695Z,76.96
2018-12-23T02:58:45.115Z,77.43
2018-12-23T03:01:12.548Z,77.86
2018-12-23T03:03:39.989Z,77.41
2018-12-23T03:06:07.418Z,77.96
2018-12-23T03:08:34.851Z,78.80
2018-12-23T03:11:02.338Z,78.59
2018-12-23T03:13:29.766Z,78.64
2018-12-23T03:15:57.200Z,78.83
2018-12-23T03:18:24.639Z,79.40
2018-12-23T03:20:52.175Z,79.39
2018-12-23T03:23:19.602Z,79.91
2018-12-23T03:25:47.041Z,80.71
2018-12-23T03:28:14.472Z,80.42
2018-12-23T03:30:41.999Z,80.72
2018-12-23T03:33:09.437Z,81.20
2018-12-23T03:35:36.949Z,80.93
2018-12-23T03:38:04.380Z,80.51
2018-12-23T03:40:31.809Z,81.13
2018-12-23T03:42:59.249Z,81.50
2018-12-23T03:45:26.744Z,80.98
2018-12-23T03:47:54.180Z,81.37
2018-12-23T03:50:21.613Z,81.15
2018-12-23T03:52:49.054Z,81.91
2018-12-23T03:55:16.477Z,81.61
2018-12-23T03:57:43.913Z,81.55
2018-12-23T04:00:11.341Z,81.56
2018-12-23T04:02:38.776Z,81.59
2018-12-23T04:05:06.222Z,81.48
2018-12-23T04:07:33.661Z,82.23
2018-12-23T04:10:01.096Z,81.78
2018-12-23T04:12:28.533Z,82.21
2018-12-23T04:14:55.968Z,82.06
2018-12-23T04:17:23.409Z,82.73
2018-12-23T04:19:50.837Z,83.14
2018-12-23T04:22:18.265Z,83.21
2018-12-23T04:24:45.763Z,83.50
2018-12-23T04:27:13.192Z,83.79
2018-12-23T04:29:40.678Z,84.15
2018-12-23T04:32:08.223Z,83.76
2018-12-23T04:34:35.796Z,84.03
2018-12-23T04:37:03.237Z,83.90
2018-12-23T04:39:31.441Z,83.97
2018-12-23T04:41:58.939Z,83.90
2018-12-23T04:44:26.373Z,83.61
2018-12-23T04:46:53.930Z,83.84
2018-12-23T04:49:21.571Z,83.42
2018-12-23T04:51:49.006Z,83.19
2018-12-23T04:54:16.513Z,83.23
2018-12-23T04:56:44.045Z,82.86
2018-12-23T04:59:11.476Z,82.88
2018-12-23T05:01:38.960Z,82.64
2018-12-23T05:04:06.385Z,83.61
2018-12-23T05:06:43.048Z,83.51
2018-12-23T05:09:04.632Z,83.62
2018-12-23T05:11:32.064Z,83.45
2018-12-23T05:13:59.509Z,83.64
2018-12-23T05:16:26.940Z,83.35
2018-12-23T05:18:54.368Z,82.74
2018-12-23T05:21:21.797Z,82.74
2018-12-23T05:23:49.237Z,82.61
2018-12-23T05:26:16.705Z,82.78
2018-12-23T05:28:44.168Z,82.41
2018-12-23T05:31:11.600Z,82.56
2018-12-23T05:33:39.037Z,82.27
2018-12-23T05:36:06.488Z,81.28
2018-12-23T05:38:33.920Z,81.45
2018-12-23T05:41:01.368Z,81.48
2018-12-23T05:43:28.909Z,81.38
2018-12-23T05:45:56.363Z,80.34
2018-12-23T05:48:23.930Z,80.99
2018-12-23T05:50:51.372Z,80.64
2018-12-23T05:53:18.846Z,80.49
2018-12-23T05:55:46.301Z,80.59
2018-12-23T05:58:13.757Z,80.40
2018-12-23T06:00:41.204Z,80.19
2018-12-23T06:03:08.650Z,80.51
2018-12-23T06:05:36.146Z,80.19
2018-12-23T06:08:03.585Z,80.51
2018-12-23T06:10:31.084Z,80.77
2018-12-23T06:12:58.522Z,80.31
2018-12-23T06:15:25.953Z,80.75
2018-12-23T06:17:53.380Z,80.94
2018-12-23T06:20:20.812Z,80.49
2018-12-23T06:22:48.241Z,80.72
2018-12-23T06:25:15.680Z,80.68
2018-12-23T06:27:43.118Z,80.35
2018-12-23T06:30:10.549Z,80.81
2018-12-23T06:32:37.981Z,81.10
2018-12-23T06:35:05.407Z,80.89
2018-12-23T06:37:32.845Z,81.04
2018-12-23T06:40:00.272Z,81.39
2018-12-23T06:42:27.705Z,80.73
2018-12-23T06:44:55.128Z,80.90
2018-12-23T06:47:22.560Z,80.76
2018-12-23T06:49:49.992Z,80.46
2018-12-23T06:52:17.518Z,80.32
2018-12-23T06:54:44.957Z,81.04
2018-12-23T06:57:12.436Z,80.43
2018-12-23T06:59:39.856Z,80.47
2018-12-23T07:02:07.306Z,79.85
2018-12-23T07:04:34.727Z,79.58
2018-12-23T07:07:02.152Z,80.08
2018-12-23T07:09:29.586Z,79.90
2018-12-23T07:11:57.066Z,80.13
2018-12-23T07:14:24.492Z,79.75
2018-12-23T07:16:51.950Z,79.97
2018-12-23T07:19:19.384Z,80.21
2018-12-23T07:21:47.688Z,79.49
2018-12-23T07:24:15.624Z,79.23
2018-12-23T07:26:43.757Z,79.13
2018-12-23T07:29:11.282Z,79.52
2018-12-23T07:31:38.703Z,80.14
2018-12-23T07:34:06.133Z,79.80
2018-12-23T07:36:33.597Z,79.81
2018-12-23T07:39:01.073Z,79.67
2018-12-23T07:41:28.496Z,80.66
2018-12-23T07:43:55.933Z,80.37
2018-12-23T07:46:24.152Z,80.26
2018-12-23T07:48:51.600Z,80.31
2018-12-23T07:51:19.025Z,79.99
2018-12-23T07:53:46.457Z,80.24
2018-12-23T07:56:13.896Z,79.34
2018-12-23T07:58:41.341Z,79.20
2018-12-23T08:01:08.777Z,78.75
2018-12-23T08:03:36.185Z,78.62
2018-12-23T08:06:03.617Z,78.81
2018-12-23T08:08:31.037Z,78.21
2018-12-23T08:10:59.044Z,78.51
2018-12-23T08:13:26.487Z,78.61
2018-12-23T08:15:53.915Z,78.27
2018-12-23T08:18:21.345Z,77.68
2018-12-23T08:20:48.782Z,77.23
2018-12-23T08:23:16.209Z,77.24
2018-12-23T08:25:43.645Z,77.03
2018-12-23T08:28:11.171Z,76.75
2018-12-23T08:30:38.684Z,76.07
2018-12-23T08:33:06.128Z,76.00
2018-12-23T08:35:33.561Z,75.42
2018-12-23T08:38:01.005Z,75.15
2018-12-23T08:40:28.434Z,75.43
2018-12-23T08:42:55.893Z,73.47
2018-12-23T08:45:23.344Z,73.99
2018-12-23T08:47:50.789Z,73.62
2018-12-23T08:50:18.221Z,74.99
2018-12-23T08:52:45.664Z,75.67
2018-12-23T08:55:13.096Z,75.78
2018-12-23T08:57:40.546Z,75.85
2018-12-23T09:00:08.021Z,76.45
2018-12-23T09:02:35.466Z,76.38
2018-12-23T09:05:02.919Z,76.95
2018-12-23T09:07:30.359Z,78.72
2018-12-23T09:09:57.799Z,80.07
2018-12-23T09:12:25.240Z,78.54
2018-12-23T09:14:52.668Z,78.78
2018-12-23T09:17:20.100Z,78.83
2018-12-23T09:19:47.540Z,77.60
2018-12-23T09:22:14.985Z,77.49
2018-12-23T09:24:42.427Z,76.35
2018-12-23T09:27:09.872Z,75.88
2018-12-23T09:29:37.322Z,75.54
2018-12-23T09:32:04.765Z,74.80
2018-12-23T09:34:32.197Z,74.12
2018-12-23T09:36:59.770Z,73.79
2018-12-23T09:39:27.207Z,73.79
2018-12-23T09:41:54.631Z,73.45
2018-12-23T09:44:22.078Z,73.10
2018-12-23T09:46:49.513Z,71.77
2018-12-23T09:49:17.054Z,71.72
2018-12-23T09:51:44.486Z,71.63
2018-12-23T09:54:11.928Z,71.62
2018-12-23T09:56:39.360Z,72.10
2018-12-23T09:59:06.792Z,71.34
2018-12-23T10:01:34.227Z,71.06
2018-12-23T10:04:01.664Z,71.07
2018-12-23T10:06:29.103Z,69.96
2018-12-23T10:08:56.540Z,70.57
2018-12-23T10:11:23.968Z,70.93
2018-12-23T10:13:51.405Z,70.79
2018-12-23T10:16:18.845Z,71.00
2018-12-23T10:18:46.292Z,70.95
2018-12-23T10:21:13.720Z,70.91
2018-12-23T10:23:41.159Z,71.45
2018-12-23T10:26:08.602Z,70.20
2018-12-23T10:28:36.048Z,70.35
2018-12-23T10:31:03.474Z,70.38
2018-12-23T10:33:30.917Z,70.57
2018-12-23T10:35:58.352Z,70.93
2018-12-23T10:38:25.840Z,70.82
2018-12-23T10:40:53.277Z,70.66
2018-12-23T10:43:20.720Z,70.69
2018-12-23T10:45:48.157Z,70.72
2018-12-23T10:48:15.589Z,70.73
2018-12-23T10:50:43.021Z,70.53
2018-12-23T10:53:10.458Z,70.16
2018-12-23T10:55:37.889Z,70.36
2018-12-23T10:58:05.320Z,70.72
2018-12-23T11:00:32.784Z,71.87
2018-12-23T11:03:00.225Z,70.14
2018-12-23T11:05:27.662Z,70.35
2018-12-23T11:07:55.084Z,70.98
2018-12-23T11:10:22.531Z,70.12
2018-12-23T11:12:49.957Z,71.20
2018-12-23T11:15:17.384Z,70.53
2018-12-23T11:17:44.893Z,71.04
2018-12-23T11:20:12.326Z,70.60
2018-12-23T11:22:39.764Z,70.49
2018-12-23T11:25:07.217Z,69.53
2018-12-23T11:27:34.743Z,69.27
2018-12-23T11:30:02.172Z,68.98
2018-12-23T11:32:29.614Z,69.92
2018-12-23T11:34:57.097Z,69.17
2018-12-23T11:37:24.532Z,69.15
2018-12-23T11:39:51.965Z,69.72
2018-12-23T11:42:19.408Z,70.27
2018-12-23T11:44:46.836Z,69.52
2018-12-23T11:47:14.259Z,67.64
2018-12-23T11:49:41.700Z,68.54
2018-12-23T11:52:09.132Z,69.68
2018-12-23T11:54:36.581Z,68.96
2018-12-23T11:57:04.019Z,68.24
2018-12-23T11:59:31.492Z,68.89
2018-12-23T12:01:58.966Z,67.98
2018-12-23T12:04:26.481Z,68.67
2018-12-23T12:06:53.917Z,68.82
2018-12-23T12:09:21.393Z,69.00
2018-12-23T12:11:50.936Z,68.70
2018-12-23T12:14:18.233Z,69.08
2018-12-23T12:16:45.673Z,69.23
2018-12-23T12:19:13.121Z,68.72
2018-12-23T12:21:40.548Z,69.16
2018-12-23T12:24:07.977Z,68.81
2018-12-23T12:26:35.421Z,69.43
2018-12-23T12:29:02.866Z,69.08
2018-12-23T12:31:30.308Z,68.35
2018-12-23T12:33:57.741Z,68.91
2018-12-23T12:36:25.207Z,68.46
2018-12-23T12:38:52.694Z,68.75
2018-12-23T12:41:20.189Z,68.31
2018-12-23T12:43:47.626Z,68.45
2018-12-23T12:46:15.062Z,68.34
2018-12-23T12:48:42.560Z,68.39
2018-12-23T12:51:09.997Z,67.78
2018-12-23T12:53:37.482Z,68.65
2018-12-23T12:56:05.123Z,68.09
2018-12-23T12:58:32.603Z,67.86
2018-12-23T13:01:00.028Z,67.49
2018-12-23T13:03:27.637Z,68.12
2018-12-23T13:05:55.083Z,68.79
2018-12-23T13:08:22.532Z,68.50
2018-12-23T13:10:49.972Z,68.92
2018-12-23T13:13:17.480Z,68.62
2018-12-23T13:15:44.917Z,67.29
2018-12-23T13:18:12.342Z,67.80
2018-12-23T13:20:39.829Z,67.17
2018-12-23T13:23:07.259Z,67.90
2018-12-23T13:25:34.686Z,68.39
2018-12-23T13:28:02.121Z,67.56
2018-12-23T13:30:29.566Z,68.11
2018-12-23T13:32:57.000Z,68.59
2018-12-23T13:35:24.442Z,67.91
2018-12-23T13:37:51.865Z,68.01
2018-12-23T13:40:19.310Z,67.74
2018-12-23T13:42:46.731Z,67.58
2018-12-23T13:45:14.177Z,67.45
2018-12-23T13:47:41.600Z,67.40
2018-12-23T13:50:09.038Z,68.61
2018-12-23T13:52:36.461Z,68.23
2018-12-23T13:55:03.934Z,68.00
2018-12-23T13:57:31.359Z,67.34
2018-12-23T13:59:58.813Z,68.52
2018-12-23T14:02:26.292Z,67.80
2018-12-23T14:04:53.729Z,68.29
2018-12-23T14:07:21.202Z,67.93
2018-12-23T14:09:48.659Z,68.76
2018-12-23T14:12:48.889Z,68.72
2018-12-23T14:15:17.166Z,68.72
2018-12-23T14:17:45.233Z,69.30
2018-12-23T14:20:13.414Z,71.03
2018-12-23T14:22:41.587Z,70.17
2018-12-23T14:25:09.758Z,71.16
2018-12-23T14:27:37.655Z,71.82
2018-12-23T14:30:05.801Z,71.72
2018-12-23T14:32:33.636Z,71.74
2018-12-23T14:35:01.737Z,72.19
2018-12-23T14:37:29.913Z,71.66
2018-12-23T14:39:58.006Z,71.67
2018-12-23T14:42:26.162Z,72.31
2018-12-23T14:44:53.984Z,72.50
2018-12-23T14:47:22.103Z,73.77
2018-12-23T14:49:49.935Z,74.11
2018-12-23T14:52:17.757Z,75.22
2018-12-23T14:54:45.583Z,74.86
2018-12-23T14:57:13.670Z,74.73
2018-12-23T14:59:41.862Z,75.60
2018-12-23T15:02:09.693Z,76.44
2018-12-23T15:04:37.516Z,76.71
2018-12-23T15:07:05.653Z,77.63
2018-12-23T15:09:34.425Z,77.41
2018-12-23T15:12:02.473Z,77.13
2018-12-23T15:14:30.299Z,77.83
2018-12-23T15:16:58.131Z,77.09
2018-12-23T15:19:25.944Z,78.78
2018-12-23T15:21:54.083Z,78.17
2018-12-23T15:24:21.911Z,79.32
2018-12-23T15:26:50.025Z,79.72
2018-12-23T15:29:17.844Z,80.90
2018-12-23T15:31:45.967Z,82.08
2018-12-23T15:34:13.784Z,81.88
2018-12-23T15:36:41.629Z,81.87
2018-12-23T15:39:09.780Z,82.55
2018-12-23T15:41:37.944Z,82.80
2018-12-23T15:44:06.121Z,83.14
2018-12-23T15:46:33.949Z,82.57
2018-12-23T15:49:02.061Z,82.84
2018-12-23T15:51:30.238Z,83.43
2018-12-23T15:53:58.722Z,83.54
2018-12-23T15:56:26.892Z,83.78
2018-12-23T15:58:54.713Z,83.71
2018-12-23T16:01:22.830Z,84.02
2018-12-23T16:03:51.000Z,84.23
2018-12-23T16:06:19.182Z,85.04
2018-12-23T16:08:47.355Z,83.81
2018-12-23T16:11:15.525Z,84.10
2018-12-23T16:13:43.705Z,84.06
2018-12-23T16:16:11.876Z,83.93
2018-12-23T16:18:39.951Z,84.19
2018-12-23T16:21:07.845Z,84.56
2018-12-23T16:23:35.671Z,84.58
2018-12-23T16:26:03.858Z,84.07
2018-12-23T16:28:31.665Z,83.69
2018-12-23T16:30:59.485Z,82.56
2018-12-23T16:33:27.667Z,81.72
2018-12-23T16:35:55.488Z,81.56
2018-12-23T16:38:23.392Z,82.16
2018-12-23T16:40:51.468Z,83.13
2018-12-23T16:43:19.645Z,83.93
2018-12-23T16:45:47.817Z,84.42
2018-12-23T16:48:15.649Z,84.64
2018-12-23T16:50:43.480Z,84.90
2018-12-23T16:53:11.625Z,85.31
2018-12-23T16:55:39.445Z,85.56
2018-12-23T16:58:07.276Z,85.76
2018-12-23T17:00:35.433Z,85.52
2018-12-23T17:03:03.342Z,85.49
2018-12-23T17:05:31.482Z,85.65
2018-12-23T17:07:59.317Z,85.00
2018-12-23T17:10:27.142Z,84.91
2018-12-23T17:12:55.284Z,86.05
2018-12-23T17:15:23.182Z,85.95
2018-12-23T17:17:51.015Z,86.00
2018-12-23T17:20:18.844Z,86.10
2018-12-23T17:22:46.673Z,86.02
2018-12-23T17:25:14.497Z,85.95
2018-12-23T17:27:42.589Z,85.95
2018-12-23T17:30:10.415Z,86.12
2018-12-23T17:32:38.527Z,86.40
2018-12-23T17:35:06.705Z,86.64
2018-12-23T17:37:34.536Z,87.00
2018-12-23T17:40:02.660Z,87.27
2018-12-23T17:42:30.814Z,87.49
2018-12-23T17:44:58.637Z,87.68
2018-12-23T17:47:26.468Z,87.82
2018-12-23T17:49:54.622Z,87.58
2018-12-23T17:52:23.545Z,87.76
2018-12-23T17:54:51.703Z,88.53
2018-12-23T17:57:19.862Z,88.84
2018-12-23T17:59:48.047Z,88.31
2018-12-23T18:02:15.875Z,87.88
2018-12-23T18:04:43.695Z,87.62
2018-12-23T18:07:11.847Z,87.80
2018-12-23T18:09:39.684Z,88.60
2018-12-23T18:12:07.518Z,88.93
2018-12-23T18:14:35.665Z,88.78
2018-12-23T18:17:03.666Z,88.63
2018-12-23T18:19:31.800Z,88.42
2018-12-23T18:21:59.625Z,88.73
2018-12-23T18:24:27.734Z,89.21
2018-12-23T18:26:55.558Z,89.56
2018-12-23T18:29:23.398Z,89.67
2018-12-23T18:31:51.540Z,89.92
2018-12-23T18:34:19.369Z,90.00
2018-12-23T18:36:47.480Z,89.94
2018-12-23T18:39:15.313Z,89.85
2018-12-23T18:41:43.419Z,89.69
2018-12-23T18:44:11.254Z,89.51
2018-12-23T18:46:39.085Z,89.45
2018-12-23T18:49:07.227Z,89.52
2018-12-23T18:51:35.397Z,89.48
2018-12-23T18:54:03.579Z,89.35
2018-12-23T18:56:31.769Z,89.28
2018-12-23T18:58:59.923Z,89.21
2018-12-23T19:01:28.102Z,89.18
2018-12-23T19:03:56.269Z,89.07
2018-12-23T19:06:24.102Z,88.92
2018-12-23T19:08:59.322Z,88.88
2018-12-23T19:11:21.823Z,88.96
2018-12-23T19:13:49.995Z,89.03
2018-12-23T19:16:17.837Z,89.13
2018-12-23T19:18:45.673Z,89.17
2018-12-23T19:21:13.503Z,89.00
2018-12-23T19:23:41.666Z,88.96
2018-12-23T19:26:09.844Z,88.85
2018-12-23T19:28:38.023Z,88.90
2018-12-23T19:31:06.192Z,89.07
2018-12-23T19:33:34.369Z,88.58
2018-12-23T19:36:02.866Z,87.68
2018-12-23T19:38:30.692Z,87.54
2018-12-23T19:40:58.786Z,87.57
2018-12-23T19:43:26.616Z,87.41
2018-12-23T19:45:54.724Z,87.50
2018-12-23T19:48:23.208Z,88.06
2018-12-23T19:50:51.028Z,88.41
2018-12-23T19:53:19.145Z,88.50
2018-12-23T19:55:47.218Z,88.42
2018-12-23T19:58:15.392Z,87.76
2018-12-23T20:00:43.209Z,87.71
2018-12-23T20:03:11.331Z,87.70
2018-12-23T20:05:39.150Z,87.85
2018-12-23T20:08:07.269Z,87.61
2018-12-23T20:10:35.342Z,87.46
2018-12-23T20:13:03.519Z,87.71
2018-12-23T20:15:32.945Z,88.19
2018-12-23T20:18:00.993Z,88.43
2018-12-23T20:20:29.231Z,88.41
2018-12-23T20:22:56.985Z,88.56
2018-12-23T20:25:24.812Z,88.54
2018-12-23T20:27:52.633Z,88.74
2018-12-23T20:30:20.455Z,88.94
2018-12-23T20:32:48.605Z,88.93
2018-12-23T20:35:16.441Z,89.02
2018-12-23T20:37:44.264Z,89.35
2018-12-23T20:40:12.412Z,89.55
2018-12-23T20:42:40.584Z,89.58
2018-12-23T20:45:08.765Z,89.55
2018-12-23T20:47:38.152Z,89.55
2018-12-23T20:50:06.646Z,89.51
2018-12-23T20:52:34.465Z,89.52
2018-12-23T20:55:02.584Z,89.39
2018-12-23T20:57:30.656Z,89.29
2018-12-23T20:59:58.487Z,89.17
2018-12-23T21:02:28.466Z,89.26
2018-12-23T21:04:56.632Z,89.38
2018-12-23T21:07:24.788Z,89.38
2018-12-23T21:09:52.618Z,89.71
2018-12-23T21:12:20.435Z,89.87
2018-12-23T21:14:48.592Z,89.87
2018-12-23T21:17:16.417Z,89.91
2018-12-23T21:19:44.532Z,89.87
2018-12-23T21:22:12.354Z,89.88
2018-12-23T21:24:40.180Z,89.88
2018-12-23T21:27:08.341Z,89.79
2018-12-23T21:29:36.511Z,89.70
2018-12-23T21:32:04.600Z,89.61
2018-12-23T21:34:32.425Z,89.53
2018-12-23T21:37:00.524Z,89.53
2018-12-23T21:39:28.705Z,89.47
2018-12-23T21:41:56.775Z,89.45
2018-12-23T21:44:24.598Z,89.30
2018-12-23T22:01:28.255Z,90.15
2018-12-23T22:03:56.423Z,90.18
2018-12-23T22:06:24.592Z,90.09
2018-12-23T22:08:52.782Z,89.92
2018-12-23T22:11:20.935Z,89.82
2018-12-23T22:13:49.010Z,89.72
2018-12-23T22:16:17.099Z,89.59
2018-12-23T22:18:45.257Z,89.56
2018-12-23T22:21:13.087Z,89.46
2018-12-23T22:23:41.198Z,89.24
2018-12-23T22:26:09.377Z,88.65
2018-12-23T22:28:37.192Z,88.52
2018-12-23T22:31:05.315Z,88.50
2018-12-23T22:33:33.136Z,88.34
2018-12-23T22:36:01.251Z,88.22
2018-12-23T22:38:29.065Z,87.93
2018-12-23T22:40:57.196Z,86.26
2018-12-23T22:43:25.383Z,84.65
2018-12-23T22:45:53.535Z,84.76
2018-12-23T22:48:21.609Z,84.60
2018-12-23T22:50:49.435Z,84.30
2018-12-23T22:53:17.548Z,83.32
2018-12-23T22:55:45.723Z,83.32
2018-12-23T22:58:13.538Z,83.99
2018-12-23T23:00:42.380Z,84.59
2018-12-23T23:03:10.555Z,85.20
2018-12-23T23:05:38.382Z,85.36
2018-12-23T23:08:06.200Z,85.36
2018-12-23T23:10:34.361Z,84.99
2018-12-23T23:13:02.546Z,84.85
2018-12-23T23:15:30.708Z,85.47
2018-12-23T23:17:58.527Z,85.59
2018-12-23T23:20:26.351Z,85.99
2018-12-23T23:22:54.166Z,86.00
2018-12-23T23:25:21.991Z,86.25
2018-12-23T23:27:50.147Z,86.77
2018-12-23T23:30:17.977Z,86.14
2018-12-23T23:32:45.792Z,86.43
2018-12-23T23:35:13.952Z,86.60
2018-12-23T23:37:42.129Z,86.26
2018-12-23T23:40:10.305Z,86.37
2018-12-23T23:42:38.124Z,86.64
2018-12-23T23:45:05.961Z,85.77
2018-12-23T23:47:34.109Z,85.89
2018-12-23T23:50:01.935Z,86.16
2018-12-23T23:52:29.755Z,86.42
2018-12-23T23:54:57.935Z,86.42
2018-12-23T23:57:25.755Z,86.74
2018-12-23T23:59:53.858Z,87.34
